sensor_id;sensor_type;location;lat;lon;timestamp;pressure;altitude;pressure_sealevel;temperature;humidity
37852;BME280;23691;52.486;4.650;2023-05-19T00:00:34;102887.22;;;12.33;62.11
37852;BME280;23691;52.486;4.650;2023-05-19T00:03:01;102894.56;;;12.31;62.46
37852;BME280;23691;52.486;4.650;2023-05-19T00:05:27;102887.47;;;12.30;62.51
37852;BME280;23691;52.486;4.650;2023-05-19T00:07:57;102888.31;;;12.30;62.59
37852;BME280;23691;52.486;4.650;2023-05-19T00:10:24;102884.53;;;12.33;62.58
37852;BME280;23691;52.486;4.650;2023-05-19T00:12:56;102888.56;;;12.27;62.56
37852;BME280;23691;52.486;4.650;2023-05-19T00:15:21;102884.44;;;12.23;63.11
37852;BME280;23691;52.486;4.650;2023-05-19T00:17:47;102882.00;;;12.20;62.94
37852;BME280;23691;52.486;4.650;2023-05-19T00:20:12;102883.00;;;12.19;63.05
37852;BME280;23691;52.486;4.650;2023-05-19T00:22:38;102879.47;;;12.18;63.06
37852;BME280;23691;52.486;4.650;2023-05-19T00:25:04;102890.44;;;12.15;63.22
37852;BME280;23691;52.486;4.650;2023-05-19T00:27:30;102885.94;;;12.16;63.41
37852;BME280;23691;52.486;4.650;2023-05-19T00:29:55;102879.56;;;12.17;63.18
37852;BME280;23691;52.486;4.650;2023-05-19T00:32:21;102875.91;;;12.18;63.08
37852;BME280;23691;52.486;4.650;2023-05-19T00:34:46;102884.22;;;12.15;63.39
37852;BME280;23691;52.486;4.650;2023-05-19T00:37:12;102881.78;;;12.12;63.41
37852;BME280;23691;52.486;4.650;2023-05-19T00:39:38;102878.25;;;12.11;63.57
37852;BME280;23691;52.486;4.650;2023-05-19T00:42:03;102881.16;;;12.08;63.82
37852;BME280;23691;52.486;4.650;2023-05-19T00:44:30;102875.78;;;12.08;64.05
37852;BME280;23691;52.486;4.650;2023-05-19T00:46:56;102874.94;;;12.08;63.60
37852;BME280;23691;52.486;4.650;2023-05-19T00:49:21;102870.69;;;12.05;64.01
37852;BME280;23691;52.486;4.650;2023-05-19T00:51:47;102868.84;;;12.06;64.11
37852;BME280;23691;52.486;4.650;2023-05-19T00:54:13;102873.53;;;12.03;64.12
37852;BME280;23691;52.486;4.650;2023-05-19T00:56:38;102872.63;;;12.03;64.20
37852;BME280;23691;52.486;4.650;2023-05-19T00:59:04;102875.69;;;11.98;64.24
37852;BME280;23691;52.486;4.650;2023-05-19T01:01:29;102868.91;;;11.94;64.39
37852;BME280;23691;52.486;4.650;2023-05-19T01:03:56;102862.06;;;11.90;64.62
37852;BME280;23691;52.486;4.650;2023-05-19T01:06:23;102869.38;;;11.88;64.53
37852;BME280;23691;52.486;4.650;2023-05-19T01:08:49;102872.06;;;11.88;64.47
37852;BME280;23691;52.486;4.650;2023-05-19T01:11:15;102864.00;;;11.88;64.54
37852;BME280;23691;52.486;4.650;2023-05-19T01:13:41;102865.00;;;11.87;64.67
37852;BME280;23691;52.486;4.650;2023-05-19T01:16:11;102872.19;;;11.87;64.76
37852;BME280;23691;52.486;4.650;2023-05-19T01:18:46;102865.31;;;11.82;64.68
37852;BME280;23691;52.486;4.650;2023-05-19T01:21:29;102870.69;;;11.82;65.06
37852;BME280;23691;52.486;4.650;2023-05-19T01:32:40;102854.75;;;11.70;65.07
37852;BME280;23691;52.486;4.650;2023-05-19T01:35:08;102855.00;;;11.67;64.95
37852;BME280;23691;52.486;4.650;2023-05-19T01:37:36;102851.09;;;11.59;65.24
37852;BME280;23691;52.486;4.650;2023-05-19T01:40:01;102855.72;;;11.57;65.29
37852;BME280;23691;52.486;4.650;2023-05-19T01:42:27;102851.47;;;11.55;65.31
37852;BME280;23691;52.486;4.650;2023-05-19T01:44:54;102852.56;;;11.52;65.36
37852;BME280;23691;52.486;4.650;2023-05-19T01:47:21;102849.13;;;11.50;65.33
37852;BME280;23691;52.486;4.650;2023-05-19T01:49:46;102844.63;;;11.51;65.56
37852;BME280;23691;52.486;4.650;2023-05-19T01:52:11;102841.94;;;11.51;65.56
37852;BME280;23691;52.486;4.650;2023-05-19T01:54:37;102849.03;;;11.52;65.54
37852;BME280;23691;52.486;4.650;2023-05-19T02:02:25;102840.47;;;11.35;66.18
37852;BME280;23691;52.486;4.650;2023-05-19T02:04:59;102831.72;;;11.33;66.00
37852;BME280;23691;52.486;4.650;2023-05-19T02:07:36;102836.97;;;11.35;65.86
37852;BME280;23691;52.486;4.650;2023-05-19T02:10:09;102843.41;;;11.32;65.90
37852;BME280;23691;52.486;4.650;2023-05-19T02:12:37;102843.03;;;11.26;66.11
37852;BME280;23691;52.486;4.650;2023-05-19T02:15:14;102843.63;;;11.18;66.27
37852;BME280;23691;52.486;4.650;2023-05-19T02:17:42;102852.47;;;11.07;66.64
37852;BME280;23691;52.486;4.650;2023-05-19T02:20:18;102844.19;;;10.99;66.59
37852;BME280;23691;52.486;4.650;2023-05-19T02:22:43;102847.97;;;10.96;66.49
37852;BME280;23691;52.486;4.650;2023-05-19T02:25:09;102845.94;;;11.00;66.45
37852;BME280;23691;52.486;4.650;2023-05-19T02:27:36;102839.47;;;11.03;66.23
37852;BME280;23691;52.486;4.650;2023-05-19T02:30:02;102832.41;;;11.02;66.39
37852;BME280;23691;52.486;4.650;2023-05-19T02:32:28;102834.81;;;11.05;66.44
37852;BME280;23691;52.486;4.650;2023-05-19T02:34:53;102839.47;;;11.03;66.58
37852;BME280;23691;52.486;4.650;2023-05-19T02:37:20;102829.22;;;10.96;66.68
37852;BME280;23691;52.486;4.650;2023-05-19T02:39:48;102835.31;;;10.99;66.85
37852;BME280;23691;52.486;4.650;2023-05-19T02:42:13;102830.22;;;10.95;66.70
37852;BME280;23691;52.486;4.650;2023-05-19T02:44:42;102831.16;;;10.94;66.69
37852;BME280;23691;52.486;4.650;2023-05-19T02:47:07;102822.16;;;10.95;66.89
37852;BME280;23691;52.486;4.650;2023-05-19T02:49:32;102824.84;;;10.95;66.79
37852;BME280;23691;52.486;4.650;2023-05-19T02:52:01;102820.59;;;10.93;66.69
37852;BME280;23691;52.486;4.650;2023-05-19T02:54:28;102822.53;;;10.91;66.83
37852;BME280;23691;52.486;4.650;2023-05-19T02:56:54;102814.59;;;10.89;67.07
37852;BME280;23691;52.486;4.650;2023-05-19T02:59:19;102816.66;;;10.86;67.12
37852;BME280;23691;52.486;4.650;2023-05-19T03:01:46;102816.03;;;10.82;66.98
37852;BME280;23691;52.486;4.650;2023-05-19T03:04:11;102815.19;;;10.82;67.01
37852;BME280;23691;52.486;4.650;2023-05-19T03:06:38;102813.50;;;10.81;67.10
37852;BME280;23691;52.486;4.650;2023-05-19T03:09:03;102812.88;;;10.77;67.31
37852;BME280;23691;52.486;4.650;2023-05-19T03:11:30;102807.84;;;10.72;67.13
37852;BME280;23691;52.486;4.650;2023-05-19T03:13:56;102807.13;;;10.70;67.08
37852;BME280;23691;52.486;4.650;2023-05-19T03:16:21;102812.47;;;10.70;67.42
37852;BME280;23691;52.486;4.650;2023-05-19T03:18:46;102804.69;;;10.67;67.38
37852;BME280;23691;52.486;4.650;2023-05-19T03:21:12;102802.16;;;10.66;67.30
37852;BME280;23691;52.486;4.650;2023-05-19T03:23:37;102810.19;;;10.66;67.35
37852;BME280;23691;52.486;4.650;2023-05-19T03:26:02;102796.78;;;10.66;67.39
37852;BME280;23691;52.486;4.650;2023-05-19T03:28:28;102797.63;;;10.66;67.43
37852;BME280;23691;52.486;4.650;2023-05-19T03:30:53;102795.81;;;10.67;67.65
37852;BME280;23691;52.486;4.650;2023-05-19T03:33:19;102803.72;;;10.68;67.74
37852;BME280;23691;52.486;4.650;2023-05-19T03:35:44;102806.41;;;10.68;67.77
37852;BME280;23691;52.486;4.650;2023-05-19T03:38:10;102810.19;;;10.66;67.78
37852;BME280;23691;52.486;4.650;2023-05-19T03:40:35;102800.31;;;10.66;67.77
37852;BME280;23691;52.486;4.650;2023-05-19T03:43:00;102806.41;;;10.68;67.87
37852;BME280;23691;52.486;4.650;2023-05-19T03:45:26;102813.56;;;10.68;68.00
37852;BME280;23691;52.486;4.650;2023-05-19T03:47:52;102808.34;;;10.66;67.83
37852;BME280;23691;52.486;4.650;2023-05-19T03:50:17;102808.59;;;10.63;68.17
37852;BME280;23691;52.486;4.650;2023-05-19T03:52:43;102805.16;;;10.61;67.86
37852;BME280;23691;52.486;4.650;2023-05-19T03:55:10;102806.34;;;10.57;68.05
37852;BME280;23691;52.486;4.650;2023-05-19T03:57:36;102808.28;;;10.55;67.89
37852;BME280;23691;52.486;4.650;2023-05-19T04:00:03;102808.28;;;10.55;68.07
37852;BME280;23691;52.486;4.650;2023-05-19T04:02:30;102801.25;;;10.54;67.91
37852;BME280;23691;52.486;4.650;2023-05-19T04:04:55;102807.56;;;10.53;67.77
37852;BME280;23691;52.486;4.650;2023-05-19T04:07:21;102811.22;;;10.52;67.99
37852;BME280;23691;52.486;4.650;2023-05-19T04:09:48;102803.19;;;10.52;68.00
37852;BME280;23691;52.486;4.650;2023-05-19T04:12:13;102808.53;;;10.52;67.89
37852;BME280;23691;52.486;4.650;2023-05-19T04:14:39;102805.84;;;10.52;68.03
37852;BME280;23691;52.486;4.650;2023-05-19T04:17:04;102812.06;;;10.52;67.95
37852;BME280;23691;52.486;4.650;2023-05-19T04:19:29;102811.31;;;10.50;67.73
37852;BME280;23691;52.486;4.650;2023-05-19T04:21:55;102814.88;;;10.51;67.80
37852;BME280;23691;52.486;4.650;2023-05-19T04:24:21;102815.81;;;10.50;67.94
37852;BME280;23691;52.486;4.650;2023-05-19T04:26:46;102822.91;;;10.51;67.83
37852;BME280;23691;52.486;4.650;2023-05-19T04:29:12;102821.91;;;10.52;67.96
37852;BME280;23691;52.486;4.650;2023-05-19T04:31:39;102822.66;;;10.54;67.72
37852;BME280;23691;52.486;4.650;2023-05-19T04:34:05;102813.66;;;10.55;67.67
37852;BME280;23691;52.486;4.650;2023-05-19T04:36:32;102821.44;;;10.58;67.91
37852;BME280;23691;52.486;4.650;2023-05-19T04:38:58;102817.56;;;10.62;67.70
37852;BME280;23691;52.486;4.650;2023-05-19T04:41:26;102818.06;;;10.67;67.66
37852;BME280;23691;52.486;4.650;2023-05-19T04:43:52;102816.88;;;10.71;67.89
37852;BME280;23691;52.486;4.650;2023-05-19T04:46:17;102819.06;;;10.78;67.84
37852;BME280;23691;52.486;4.650;2023-05-19T04:48:48;102826.75;;;10.82;67.85
37852;BME280;23691;52.486;4.650;2023-05-19T04:51:14;102816.66;;;10.86;67.79
37852;BME280;23691;52.486;4.650;2023-05-19T04:53:40;102820.78;;;10.90;68.08
37852;BME280;23691;52.486;4.650;2023-05-19T04:56:06;102820.59;;;10.93;68.14
37852;BME280;23691;52.486;4.650;2023-05-19T04:58:31;102820.19;;;10.98;68.00
37852;BME280;23691;52.486;4.650;2023-05-19T05:00:57;102820.59;;;11.04;68.37
37852;BME280;23691;52.486;4.650;2023-05-19T05:03:23;102822.06;;;11.08;68.43
37852;BME280;23691;52.486;4.650;2023-05-19T05:05:48;102814.41;;;11.15;68.45
37852;BME280;23691;52.486;4.650;2023-05-19T05:08:14;102819.28;;;11.21;68.54
37852;BME280;23691;52.486;4.650;2023-05-19T05:10:46;102820.25;;;11.31;68.44
37852;BME280;23691;52.486;4.650;2023-05-19T05:13:11;102824.78;;;11.42;68.49
37852;BME280;23691;52.486;4.650;2023-05-19T05:15:37;102828.44;;;11.52;68.85
37852;BME280;23691;52.486;4.650;2023-05-19T05:18:02;102820.25;;;11.65;68.80
37852;BME280;23691;52.486;4.650;2023-05-19T05:20:29;102823.16;;;11.73;68.83
37852;BME280;23691;52.486;4.650;2023-05-19T05:22:55;102829.72;;;11.80;69.05
37852;BME280;23691;52.486;4.650;2023-05-19T05:25:22;102828.75;;;11.93;69.08
37852;BME280;23691;52.486;4.650;2023-05-19T05:27:47;102825.22;;;12.03;69.35
37852;BME280;23691;52.486;4.650;2023-05-19T05:30:13;102826.91;;;12.16;69.23
37852;BME280;23691;52.486;4.650;2023-05-19T05:32:38;102819.91;;;12.24;69.22
37852;BME280;23691;52.486;4.650;2023-05-19T05:35:04;102825.63;;;12.31;69.25
37852;BME280;23691;52.486;4.650;2023-05-19T05:37:30;102833.16;;;12.37;69.21
37852;BME280;23691;52.486;4.650;2023-05-19T05:39:55;102829.13;;;12.43;69.34
37852;BME280;23691;52.486;4.650;2023-05-19T05:42:20;102822.97;;;12.52;69.32
37852;BME280;23691;52.486;4.650;2023-05-19T05:44:46;102828.78;;;12.57;69.41
37852;BME280;23691;52.486;4.650;2023-05-19T05:47:11;102828.13;;;12.65;69.53
37852;BME280;23691;52.486;4.650;2023-05-19T05:49:38;102825.69;;;12.73;69.58
37852;BME280;23691;52.486;4.650;2023-05-19T05:52:05;102824.91;;;12.82;69.24
37852;BME280;23691;52.486;4.650;2023-05-19T05:54:32;102821.56;;;12.90;69.41
37852;BME280;23691;52.486;4.650;2023-05-19T05:56:58;102820.88;;;12.98;69.49
37852;BME280;23691;52.486;4.650;2023-05-19T05:59:23;102811.31;;;13.05;69.21
37852;BME280;23691;52.486;4.650;2023-05-19T06:01:49;102816.03;;;13.13;69.49
37852;BME280;23691;52.486;4.650;2023-05-19T06:04:14;102823.41;;;13.20;69.50
37852;BME280;23691;52.486;4.650;2023-05-19T06:06:39;102823.22;;;13.33;69.43
37852;BME280;23691;52.486;4.650;2023-05-19T06:09:05;102820.47;;;13.44;69.14
37852;BME280;23691;52.486;4.650;2023-05-19T06:11:31;102816.94;;;13.53;69.19
37852;BME280;23691;52.486;4.650;2023-05-19T06:13:56;102816.00;;;13.64;68.98
37852;BME280;23691;52.486;4.650;2023-05-19T06:16:21;102819.00;;;13.71;69.04
37852;BME280;23691;52.486;4.650;2023-05-19T06:18:47;102829.06;;;13.79;68.90
37852;BME280;23691;52.486;4.650;2023-05-19T06:21:12;102826.53;;;13.87;68.75
37852;BME280;23691;52.486;4.650;2023-05-19T06:23:41;102822.44;;;13.92;68.70
37852;BME280;23691;52.486;4.650;2023-05-19T06:26:06;102822.88;;;13.98;68.54
37852;BME280;23691;52.486;4.650;2023-05-19T06:28:32;102824.00;;;14.05;68.61
37852;BME280;23691;52.486;4.650;2023-05-19T06:30:57;102820.38;;;14.15;68.51
37852;BME280;23691;52.486;4.650;2023-05-19T06:33:24;102821.63;;;14.21;68.26
37852;BME280;23691;52.486;4.650;2023-05-19T06:35:49;102825.88;;;14.24;68.25
37852;BME280;23691;52.486;4.650;2023-05-19T06:38:15;102821.34;;;14.34;68.09
37852;BME280;23691;52.486;4.650;2023-05-19T06:40:40;102817.41;;;14.38;68.04
37852;BME280;23691;52.486;4.650;2023-05-19T06:43:06;102818.66;;;14.44;67.92
37852;BME280;23691;52.486;4.650;2023-05-19T06:45:31;102825.31;;;14.49;67.77
37852;BME280;23691;52.486;4.650;2023-05-19T06:47:57;102816.00;;;14.53;67.45
37852;BME280;23691;52.486;4.650;2023-05-19T06:50:23;102819.69;;;14.62;67.53
37852;BME280;23691;52.486;4.650;2023-05-19T06:52:49;102816.53;;;14.67;67.49
37852;BME280;23691;52.486;4.650;2023-05-19T06:55:15;102817.84;;;14.72;67.21
37852;BME280;23691;52.486;4.650;2023-05-19T06:57:41;102819.53;;;14.73;67.07
37852;BME280;23691;52.486;4.650;2023-05-19T07:00:06;102822.09;;;14.75;67.24
37852;BME280;23691;52.486;4.650;2023-05-19T07:02:35;102819.09;;;14.78;66.63
37852;BME280;23691;52.486;4.650;2023-05-19T07:05:01;102813.16;;;14.84;66.92
37852;BME280;23691;52.486;4.650;2023-05-19T07:07:27;102814.41;;;14.90;66.79
37852;BME280;23691;52.486;4.650;2023-05-19T07:09:53;102818.25;;;14.87;66.64
37852;BME280;23691;52.486;4.650;2023-05-19T07:12:18;102815.53;;;14.87;66.56
37852;BME280;23691;52.486;4.650;2023-05-19T07:14:44;102812.13;;;14.95;66.14
37852;BME280;23691;52.486;4.650;2023-05-19T07:17:09;102815.22;;;15.00;66.08
37852;BME280;23691;52.486;4.650;2023-05-19T07:19:34;102814.19;;;15.11;66.19
37852;BME280;23691;52.486;4.650;2023-05-19T07:22:00;102810.88;;;15.27;65.84
37852;BME280;23691;52.486;4.650;2023-05-19T07:24:25;102809.72;;;15.39;65.71
37852;BME280;23691;52.486;4.650;2023-05-19T07:26:51;102813.06;;;15.51;65.18
37852;BME280;23691;52.486;4.650;2023-05-19T07:29:17;102808.66;;;15.50;65.11
37852;BME280;23691;52.486;4.650;2023-05-19T07:31:42;102811.91;;;15.53;65.06
37852;BME280;23691;52.486;4.650;2023-05-19T07:34:07;102810.56;;;15.67;64.77
37852;BME280;23691;52.486;4.650;2023-05-19T07:36:33;102803.97;;;15.79;64.90
37852;BME280;23691;52.486;4.650;2023-05-19T07:38:58;102812.28;;;15.96;64.68
37852;BME280;23691;52.486;4.650;2023-05-19T07:41:23;102808.03;;;16.11;64.34
37852;BME280;23691;52.486;4.650;2023-05-19T07:43:49;102812.44;;;16.30;64.20
37852;BME280;23691;52.486;4.650;2023-05-19T07:46:14;102808.19;;;16.45;63.63
37852;BME280;23691;52.486;4.650;2023-05-19T07:48:40;102805.94;;;16.59;63.62
37852;BME280;23691;52.486;4.650;2023-05-19T07:51:05;102806.84;;;16.67;63.27
37852;BME280;23691;52.486;4.650;2023-05-19T07:53:34;102801.50;;;16.75;62.96
37852;BME280;23691;52.486;4.650;2023-05-19T07:56:00;102802.44;;;16.84;62.59
37852;BME280;23691;52.486;4.650;2023-05-19T07:58:25;102798.81;;;16.93;62.34
37852;BME280;23691;52.486;4.650;2023-05-19T08:00:50;102803.94;;;17.05;61.81
37852;BME280;23691;52.486;4.650;2023-05-19T08:03:17;102794.84;;;17.14;61.55
37852;BME280;23691;52.486;4.650;2023-05-19T08:05:42;102796.59;;;17.23;61.18
37852;BME280;23691;52.486;4.650;2023-05-19T08:08:08;102797.28;;;17.25;60.52
37852;BME280;23691;52.486;4.650;2023-05-19T08:10:33;102799.19;;;17.33;60.29
37852;BME280;23691;52.486;4.650;2023-05-19T08:12:59;102800.41;;;17.47;59.90
37852;BME280;23691;52.486;4.650;2023-05-19T08:15:24;102801.13;;;17.57;59.61
37852;BME280;23691;52.486;4.650;2023-05-19T08:17:50;102805.44;;;17.68;58.89
37852;BME280;23691;52.486;4.650;2023-05-19T08:20:15;102790.59;;;17.80;58.46
37852;BME280;23691;52.486;4.650;2023-05-19T08:22:41;102794.34;;;17.87;57.84
37852;BME280;23691;52.486;4.650;2023-05-19T08:25:06;102793.16;;;17.90;57.48
37852;BME280;23691;52.486;4.650;2023-05-19T08:27:32;102787.59;;;17.99;56.91
37852;BME280;23691;52.486;4.650;2023-05-19T08:29:57;102786.28;;;18.12;56.36
37852;BME280;23691;52.486;4.650;2023-05-19T08:32:23;102789.31;;;18.25;56.33
37852;BME280;23691;52.486;4.650;2023-05-19T08:34:49;102792.91;;;18.34;55.83
37852;BME280;23691;52.486;4.650;2023-05-19T08:37:14;102782.72;;;18.36;55.44
37852;BME280;23691;52.486;4.650;2023-05-19T08:39:40;102782.19;;;18.40;55.05
37852;BME280;23691;52.486;4.650;2023-05-19T08:42:05;102773.41;;;18.55;54.65
37852;BME280;23691;52.486;4.650;2023-05-19T08:44:34;102772.03;;;18.67;53.83
37852;BME280;23691;52.486;4.650;2023-05-19T08:47:03;102767.97;;;18.79;53.40
37852;BME280;23691;52.486;4.650;2023-05-19T08:49:32;102775.06;;;18.97;52.98
37852;BME280;23691;52.486;4.650;2023-05-19T08:52:05;102773.00;;;19.07;52.54
37852;BME280;23691;52.486;4.650;2023-05-19T08:55:02;102767.56;;;19.07;51.85
37852;BME280;23691;52.486;4.650;2023-05-19T08:57:28;102766.69;;;19.15;51.37
37852;BME280;23691;52.486;4.650;2023-05-19T08:59:55;102775.34;;;19.18;50.87
37852;BME280;23691;52.486;4.650;2023-05-19T09:02:21;102773.78;;;19.24;50.43
37852;BME280;23691;52.486;4.650;2023-05-19T09:04:46;102766.94;;;19.36;50.00
37852;BME280;23691;52.486;4.650;2023-05-19T09:07:13;102771.81;;;19.49;49.06
37852;BME280;23691;52.486;4.650;2023-05-19T09:09:39;102771.13;;;19.55;49.06
37852;BME280;23691;52.486;4.650;2023-05-19T09:12:11;102768.19;;;19.65;48.54
37852;BME280;23691;52.486;4.650;2023-05-19T09:14:37;102763.88;;;19.79;48.49
37852;BME280;23691;52.486;4.650;2023-05-19T09:17:04;102761.06;;;19.95;48.03
37852;BME280;23691;52.486;4.650;2023-05-19T09:19:30;102765.97;;;20.00;47.42
37852;BME280;23691;52.486;4.650;2023-05-19T09:22:00;102756.53;;;20.10;47.44
37852;BME280;23691;52.486;4.650;2023-05-19T09:24:27;102758.66;;;20.23;46.68
37852;BME280;23691;52.486;4.650;2023-05-19T09:26:56;102761.97;;;20.33;46.11
37852;BME280;23691;52.486;4.650;2023-05-19T09:29:22;102764.69;;;20.33;45.89
37852;BME280;23691;52.486;4.650;2023-05-19T09:31:52;102761.19;;;20.25;45.36
37852;BME280;23691;52.486;4.650;2023-05-19T09:34:19;102760.25;;;20.32;45.38
37852;BME280;23691;52.486;4.650;2023-05-19T09:36:46;102765.66;;;20.41;45.23
37852;BME280;23691;52.486;4.650;2023-05-19T09:39:23;102756.34;;;20.35;45.10
37852;BME280;23691;52.486;4.650;2023-05-19T09:41:51;102758.72;;;20.38;44.66
37852;BME280;23691;52.486;4.650;2023-05-19T09:44:24;102749.72;;;20.52;44.08
37852;BME280;23691;52.486;4.650;2023-05-19T09:46:57;102753.91;;;20.63;43.65
37852;BME280;23691;52.486;4.650;2023-05-19T09:49:24;102754.88;;;20.70;43.78
37852;BME280;23691;52.486;4.650;2023-05-19T09:51:57;102757.63;;;20.62;43.50
37852;BME280;23691;52.486;4.650;2023-05-19T09:54:24;102758.59;;;20.69;43.30
37852;BME280;23691;52.486;4.650;2023-05-19T09:57:01;102759.91;;;20.73;42.65
37852;BME280;23691;52.486;4.650;2023-05-19T09:59:28;102753.94;;;20.78;42.27
37852;BME280;23691;52.486;4.650;2023-05-19T10:01:55;102748.22;;;20.88;41.98
37852;BME280;23691;52.486;4.650;2023-05-19T10:04:23;102745.28;;;20.89;41.91
37852;BME280;23691;52.486;4.650;2023-05-19T10:06:49;102744.06;;;20.77;41.99
37852;BME280;23691;52.486;4.650;2023-05-19T10:09:21;102746.06;;;20.83;41.76
37852;BME280;23691;52.486;4.650;2023-05-19T10:11:50;102753.38;;;20.97;41.30
37852;BME280;23691;52.486;4.650;2023-05-19T10:14:15;102752.34;;;20.98;40.68
37852;BME280;23691;52.486;4.650;2023-05-19T10:16:43;102752.72;;;20.80;40.98
37852;BME280;23691;52.486;4.650;2023-05-19T10:19:10;102749.78;;;20.82;40.28
37852;BME280;23691;52.486;4.650;2023-05-19T10:21:36;102753.94;;;20.78;40.74
37852;BME280;23691;52.486;4.650;2023-05-19T10:24:02;102748.38;;;20.86;40.25
37852;BME280;23691;52.486;4.650;2023-05-19T10:26:28;102755.25;;;20.97;40.37
37852;BME280;23691;52.486;4.650;2023-05-19T10:28:54;102747.56;;;21.00;40.11
37852;BME280;23691;52.486;4.650;2023-05-19T10:31:22;102744.44;;;21.04;40.13
37852;BME280;23691;52.486;4.650;2023-05-19T10:33:55;102739.94;;;21.26;40.12
37852;BME280;23691;52.486;4.650;2023-05-19T10:36:38;102743.13;;;21.29;40.24
37852;BME280;23691;52.486;4.650;2023-05-19T10:39:28;102733.00;;;21.23;40.04
37852;BME280;23691;52.486;4.650;2023-05-19T10:42:18;102731.47;;;21.50;39.85
37852;BME280;23691;52.486;4.650;2023-05-19T10:45:12;102728.56;;;21.73;39.05
37852;BME280;23691;52.486;4.650;2023-05-19T10:47:42;102735.25;;;21.71;38.71
37852;BME280;23691;52.486;4.650;2023-05-19T10:50:09;102735.06;;;21.72;38.43
37852;BME280;23691;52.486;4.650;2023-05-19T10:52:38;102738.19;;;21.69;38.28
37852;BME280;23691;52.486;4.650;2023-05-19T10:55:08;102725.53;;;21.83;38.00
37852;BME280;23691;52.486;4.650;2023-05-19T10:57:34;102717.03;;;21.93;38.09
37852;BME280;23691;52.486;4.650;2023-05-19T11:00:26;102718.59;;;22.02;38.25
37852;BME280;23691;52.486;4.650;2023-05-19T11:02:51;102726.00;;;22.08;37.87
37852;BME280;23691;52.486;4.650;2023-05-19T11:05:27;102718.75;;;22.15;37.97
37852;BME280;23691;52.486;4.650;2023-05-19T11:07:57;102728.09;;;22.06;37.82
37852;BME280;23691;52.486;4.650;2023-05-19T11:10:28;102714.25;;;22.07;38.00
37852;BME280;23691;52.486;4.650;2023-05-19T11:12:55;102716.13;;;22.07;37.73
37852;BME280;23691;52.486;4.650;2023-05-19T11:15:24;102714.38;;;21.99;37.70
37852;BME280;23691;52.486;4.650;2023-05-19T11:17:51;102718.59;;;22.02;38.09
37852;BME280;23691;52.486;4.650;2023-05-19T11:20:25;102716.13;;;22.07;38.26
37852;BME280;23691;52.486;4.650;2023-05-19T11:23:03;102714.00;;;22.24;37.98
37852;BME280;23691;52.486;4.650;2023-05-19T11:25:55;102705.25;;;22.28;37.77
37852;BME280;23691;52.486;4.650;2023-05-19T11:28:21;102706.53;;;22.33;37.89
37852;BME280;23691;52.486;4.650;2023-05-19T11:30:53;102713.75;;;22.47;37.91
37852;BME280;23691;52.486;4.650;2023-05-19T11:33:21;102708.81;;;22.57;37.99
37852;BME280;23691;52.486;4.650;2023-05-19T11:35:52;102708.84;;;22.64;37.34
37852;BME280;23691;52.486;4.650;2023-05-19T11:38:18;102711.66;;;22.77;37.30
37852;BME280;23691;52.486;4.650;2023-05-19T11:40:46;102706.91;;;22.92;37.01
37852;BME280;23691;52.486;4.650;2023-05-19T11:43:12;102705.59;;;23.23;36.77
37852;BME280;23691;52.486;4.650;2023-05-19T11:45:38;102706.84;;;23.21;37.10
37852;BME280;23691;52.486;4.650;2023-05-19T11:48:03;102709.34;;;23.09;36.85
37852;BME280;23691;52.486;4.650;2023-05-19T11:50:32;102711.91;;;23.17;36.57
37852;BME280;23691;52.486;4.650;2023-05-19T11:52:59;102718.00;;;23.26;36.21
37852;BME280;23691;52.486;4.650;2023-05-19T11:55:25;102706.97;;;23.41;36.55
37852;BME280;23691;52.486;4.650;2023-05-19T12:00:21;102704.25;;;23.54;35.92
37852;BME280;23691;52.486;4.650;2023-05-19T12:02:53;102694.38;;;23.46;36.31
37852;BME280;23691;52.486;4.650;2023-05-19T12:05:20;102693.75;;;23.57;36.02
37852;BME280;23691;52.486;4.650;2023-05-19T12:07:50;102699.09;;;23.79;35.76
37852;BME280;23691;52.486;4.650;2023-05-19T12:10:26;102691.09;;;24.04;34.83
37852;BME280;23691;52.486;4.650;2023-05-19T12:12:54;102690.91;;;24.19;35.29
37852;BME280;23691;52.486;4.650;2023-05-19T12:15:20;102692.81;;;24.32;34.47
37852;BME280;23691;52.486;4.650;2023-05-19T12:17:51;102688.38;;;24.17;33.99
37852;BME280;23691;52.486;4.650;2023-05-19T12:20:20;102676.19;;;24.07;34.08
37852;BME280;23691;52.486;4.650;2023-05-19T12:22:50;102674.28;;;24.20;34.03
37852;BME280;23691;52.486;4.650;2023-05-19T12:25:25;102691.75;;;24.33;33.62
37852;BME280;23691;52.486;4.650;2023-05-19T12:27:56;102685.00;;;24.29;33.15
37852;BME280;23691;52.486;4.650;2023-05-19T12:30:28;102676.59;;;24.30;32.90
37852;BME280;23691;52.486;4.650;2023-05-19T12:32:57;102681.44;;;24.21;33.11
37852;BME280;23691;52.486;4.650;2023-05-19T12:35:26;102675.75;;;23.96;32.91
37852;BME280;23691;52.486;4.650;2023-05-19T12:37:53;102675.03;;;23.54;32.70
37852;BME280;23691;52.486;4.650;2023-05-19T12:40:19;102683.53;;;23.73;32.59
37852;BME280;23691;52.486;4.650;2023-05-19T12:42:44;102670.94;;;24.05;31.69
37852;BME280;23691;52.486;4.650;2023-05-19T12:45:10;102677.00;;;24.40;31.43
37852;BME280;23691;52.486;4.650;2023-05-19T12:47:36;102673.00;;;24.43;31.33
37852;BME280;23691;52.486;4.650;2023-05-19T12:50:05;102667.13;;;24.39;31.51
37852;BME280;23691;52.486;4.650;2023-05-19T12:52:43;102667.31;;;24.51;31.05
37852;BME280;23691;52.486;4.650;2023-05-19T12:55:09;102667.13;;;24.59;30.85
37852;BME280;23691;52.486;4.650;2023-05-19T12:57:43;102666.03;;;24.60;30.86
37852;BME280;23691;52.486;4.650;2023-05-19T13:00:19;102668.13;;;24.65;31.30
37852;BME280;23691;52.486;4.650;2023-05-19T13:05:35;102658.13;;;25.04;30.87
37852;BME280;23691;52.486;4.650;2023-05-19T13:08:06;102641.22;;;25.20;30.52
37852;BME280;23691;52.486;4.650;2023-05-19T13:10:32;102643.44;;;25.30;30.37